CYRJCYND

Guest
Details From CYRJ - ROBERVAL
To CYND - GATINEAU
Flight Number -
Tags generated
Created
Modified
Stats Distance 246 nm / 455 km
Max Altitude 24,800 ft / 7,559 m
Waypoints 4
Social Downloads 0
Likes 0
Share VATSIM

Download

Looking for another format? Having issues loading an existing format? Contact us
Advertisement - Login to hide

Notes

Basic altitude profile: - Ascent Rate: 2500ft/min - Ascent Speed: 250kts - Cruise Altitude: 35000ft - Cruise Speed: 420kts - Descent Rate: 1500ft/min - Descent Speed: 250kts Options: - Use NATs: yes - Use PACOTS: yes - Use low airways: yes - Use high airways: yes

Route

CYRJ YLQ R17 UFX CYND

ID Type Via Altitude Latitude Longitude Leg Dist Tot Dist Heading (true) Name
O CYRJ APT - 0 ft / 0 m 48.52000˚ -72.26556˚ - 0 nm - ROBERVAL
YLQ NDB - 24,800 ft / 7,559 m 47.41614˚ -72.78650˚ 69 nm 69 nm 198° / 197° LA TUQUE NDB
UFX NDB R17 (AWY-LO) 18,000 ft / 5,486 m 46.19225˚ -73.41903˚ 77 nm 147 nm 200° / 199° ST-FELIX-DE-VALOI NDB
O CYND APT - 0 ft / 0 m 45.52169˚ -75.56359˚ 98 nm 245 nm 247° / 245° GATINEAU

Altitude Profile

Advertisement - Login to hide

Weather


0- 5 10 15 20 25 30 35+ Temperature / ° C

Clouds and Precipitation
Forecast for 2017-12-18 06:00 UTC. Updated 15 minutes ago

Ground ~20,000 ft ~40,000 ft Winds

CYRJ

Details ICAO CYRJ (YRJ)
Name ROBERVAL
Region Canada
Timezone America/Montreal (UTC-5.0)
Stats Elevation 586 ft / 179 m (AMSL)
Location 48.520001° -72.265556°
Runways 1
Magnetic Variation 16.084° W

METAR

CYRJ 180300Z 24007KT 30SM FEW020 M23/M26 A3019 RMK SC1 SC TR SLP247

Decode

TAF

TAF CYRJ 171938Z 1720/1803 VRB03KT P6SM BKN025 TEMPO 1720/1724 4SM -SHSN OVC015 FM180000 23005KT P6SM FEW015 RMK NXT FCST WILL BE ISSUED AT 181245Z

Decode

Departure Runways

ID Width Length Bearing (true) Bearing (mag) Surface Threshold Offset Overrun Length
16 150 ft / 46 m 5,096 ft / 1,553 m 142.69° 158.77° Asphalt 0 ft / 0 m 0 ft / 0 m
34 150 ft / 46 m 5,096 ft / 1,553 m 322.70° 338.78° Asphalt 0 ft / 0 m 0 ft / 0 m

CYND

Details ICAO CYND (YND)
Name GATINEAU
Region Canada
Timezone America/Montreal (UTC-5.0)
Stats Elevation 211 ft / 64 m (AMSL)
Location 45.521693° -75.563587°
Runways 1
Magnetic Variation 13.368° W

METAR

CYND 180200Z 05004KT 15SM SCT140 BKN220 M17/M20 A3026 RMK AC4CI3 LAST STFD OBS/NEXT 181200 UTC SLP255

Decode

TAF

TAF CYND 172340Z 1800/1802 VRB03KT P6SM SCT170 BKN200 RMK NXT FCST WILL BE ISSUED AT 181345Z

Decode

Destination Runways

ID Width Length Bearing (true) Bearing (mag) Surface Threshold Offset Overrun Length
09 150 ft / 46 m 5,983 ft / 1,824 m 75.36° 88.73° Asphalt 0 ft / 0 m 200 ft / 61 m
27 150 ft / 46 m 5,983 ft / 1,824 m 255.37° 268.74° Asphalt 0 ft / 0 m 200 ft / 61 m